Airfield :
LOGIN :

Register | Disclaimer

   EN    FR    IT 

 










Legend :    VFR   Marginal VFR   IFR   Intensive IFR   Very Intensive IFR
Visi :
Ceiling :
>= 8 km
>= 3000ft
5 to 8 km
1000 to 3000 ft
1500m to 5 km
500 to 1000 ft
800 to 1500m
200 to 500 ft
< 800m
< 200 ft
Symbols :   Thunderstorms  Fog  Heavy snow  Heavy precipitations  Wind > 20 kt
SIGMETs :     Misc.  Thunderstorms  Icing  Turbulence  Mountain Waves  Volcanic Ashes







- Airport Elevation : 13 ft
- IATA code : LYX
- Download approach charts


EGMD - Lydd

CURRENT METAR :
  • 181020Z 17022KT 9999 BKN012 09/07 Q1014

EXPIRED METARs :
  • 180950Z 17022KT 9999 BKN011 09/07 Q1015
  • 180920Z 17020KT 9999 BKN010 09/07 Q1015
  • 180850Z 18021KT 9999 BKN011 09/08 Q1015
  • 180820Z 18020KT 9999 BKN012 10/08 Q1015
  • 180750Z AUTO 19023KT 9999 OVC013/// 10/08 Q1015

TAF TAF EGMD
Valid from the 18 at 09:00 until the 18 at 18:00 UTC


180804Z 1809/1818 16024G35KT 9999 SCT013
TEMPO 1809/1811 BKN010
PROB30
TEMPO 1811/1813 6000 RA
PROB30
TEMPO 1814/1818 16034G44KT
ATIS : +44 1797 322 422
No reported NOTAMs for that airfield.
4 SIGMETs reported for the London FIR (EGTT) :
 
Severe turbulence
EGTT SIGMET 06 VALID 181100/181500 EGRR
EGTT LONDON FIR SEV TURB FCST WI N5000 W00200 - N4919 W00530 - N5500 W00530 - N5500 E00100 - N5000 W00017 - N5000 W00200 SFC/FL060 MOV E 10KT WKN=
Severe mountain waves
EGTT SIGMET 05 VALID 181100/181500 EGRR
EGTT LONDON FIR SEV MTW FCST WI N5220 W00530 - N5500 W00530 - N5500 W00015 - N5024 W00255 - N4959 W00548 - N5220 W00530 - N5220 W00530 FL030/250 STNR NC=
Severe mountain waves
EGTT SIGMET 04 VALID 180700/181100 EGRR
EGTT LONDON FIR SEV MTW FCST WI N5220 W00530 - N5500 W00530 - N5500 W00015 - N5024 W00255 - N4959 W00548 - N5220 W00530 - N5220 W00530 FL030/250 STNR NC=
Severe turbulence
EGTT SIGMET 03 VALID 180700/181100 EGRR
EGTT LONDON FIR SEV TURB FCST WI N4850 W00800 - N5100 W00800 - N5220 W00530 - N5500 W00530 - N5500 W00247 - N5101 W00311 - N4958 W00208 - N4850 W00800 SFC/FL060 MOV E 10KT NC=



MET'MAP, your aeronautical weather chart ! - Copyright ORBIFLY December 2007 - Disclaimer

ORBIFLY MET'MAP TEAM :

Programming & Development : Alexandra Zaïnal
Concept & Development : Baudouin d'Aumeries
Co-Development & Prog : Marc-Olivier Méhu
Technical & hardware support : Manuel Goepfert

Contact : metmap@orbifly.com




SOURCES & CREDITS :

   NOAA